Time;durP1;ratioP1;P1;durP2;ratioP2;P2;SDS_P1;SDS_P2;PMS_P1;PMS_P2;Temp;Humidity;BMP_temperature;BMP_pressure;BME280_temperature;BME280_humidity;BME280_pressure;Samples;Min_cycle;Max_cycle;Signal;HPM_P1;HPM_P2
2023/03/17 00:00:20;;;;;;;6.03;3.10;;;;;;;-146.25;72.67;52394.56;2107355;28;36808;-75
2023/03/17 00:01:22;;;;;;;4.63;3.20;;;;;;;-146.25;72.39;52380.38;2106925;28;27733;-75
2023/03/17 00:02:26;;;;;;;4.07;2.60;;;;;;;-146.25;72.87;52343.88;2107454;28;34122;-74
2023/03/17 00:03:33;;;;;;;6.15;3.00;;;;;;;-146.25;72.70;52347.91;2107372;28;33175;-75
2023/03/17 00:04:34;;;;;;;4.70;2.53;;;;;;;-146.25;72.72;52380.38;2098449;28;35124;-75
2023/03/17 00:05:36;;;;;;;4.40;3.13;;;;;;;-146.25;72.60;52388.47;2098971;28;39114;-75
2023/03/17 00:06:40;;;;;;;5.80;3.15;;;;;;;-146.25;72.39;52364.13;2098143;28;32348;-75
2023/03/17 00:07:46;;;;;;;4.80;2.88;;;;;;;-146.25;73.17;52351.97;2099497;28;20718;-75
2023/03/17 00:08:48;;;;;;;4.68;3.00;;;;;;;-146.25;72.78;52392.53;2106844;28;37263;-75
2023/03/17 00:09:50;;;;;;;3.88;3.00;;;;;;;-146.25;73.68;52351.97;2106913;28;35744;-75
2023/03/17 00:10:53;;;;;;;5.55;2.80;;;;;;;-146.25;73.02;52376.31;2107261;28;37296;-73
2023/03/17 00:11:57;;;;;;;5.35;3.25;;;;;;;-146.25;72.92;52422.94;2098986;28;20041;-75
2023/03/17 00:13:02;;;;;;;3.88;2.65;;;;;;;-146.25;73.50;52398.59;2099545;28;33964;-75
2023/03/17 00:14:04;;;;;;;6.60;3.58;;;;;;;-146.25;73.75;52374.28;2107213;28;39022;-75
2023/03/17 00:15:07;;;;;;;5.45;3.42;;;;;;;-146.25;73.90;52366.16;2107138;28;32594;-74
2023/03/17 00:16:25;;;;;;;5.13;3.00;;;;;;;-146.25;73.54;52341.84;2106954;28;33328;-75
2023/03/17 00:17:27;;;;;;;5.75;3.05;;;;;;;-146.25;72.93;52364.13;2098183;28;38440;-73
2023/03/17 00:18:34;;;;;;;5.13;3.17;;;;;;;-146.25;73.52;52380.38;2100586;28;20053;-75
2023/03/17 00:19:35;;;;;;;5.80;2.80;;;;;;;-146.25;73.61;52392.53;2107233;28;36228;-73
2023/03/17 00:20:38;;;;;;;3.78;2.80;;;;;;;-146.25;73.93;52356.03;2097924;28;33728;-75
2023/03/17 00:21:42;;;;;;;5.60;2.90;;;;;;;-146.25;73.63;52368.19;2090156;28;32763;-75
2023/03/17 00:22:44;;;;;;;3.35;2.72;;;;;;;-146.25;73.88;52337.78;2098692;28;39312;-75
2023/03/17 00:23:50;;;;;;;4.22;2.90;;;;;;;-146.25;73.38;52362.13;2097989;28;29301;-72
2023/03/17 00:24:52;;;;;;;4.47;2.85;;;;;;;-146.25;73.81;52410.78;2098932;28;37600;-74
2023/03/17 00:25:56;;;;;;;4.50;3.03;;;;;;;-146.25;74.51;52351.97;2107349;28;32819;-75
2023/03/17 00:27:00;;;;;;;5.75;3.35;;;;;;;-146.25;74.30;52368.19;2106835;28;34075;-75
2023/03/17 00:28:03;;;;;;;5.80;3.22;;;;;;;-146.25;74.86;52362.13;2107688;28;20168;-75
2023/03/17 00:29:05;;;;;;;4.22;2.80;;;;;;;-146.25;74.77;52366.16;2106930;28;22366;-75
2023/03/17 00:30:10;;;;;;;5.97;3.15;;;;;;;-146.25;74.30;52356.03;2106457;28;29540;-75
2023/03/17 00:31:21;;;;;;;5.70;3.28;;;;;;;-146.25;74.38;52358.06;2089392;28;27093;-75
2023/03/17 00:32:22;;;;;;;4.35;2.90;;;;;;;-146.25;74.37;52360.09;2093244;28;21275;-75
2023/03/17 00:33:31;;;;;;;5.55;3.42;;;;;;;-146.25;74.06;52343.88;2098751;28;20811;-75
2023/03/17 00:34:36;;;;;;;4.57;3.17;;;;;;;-146.25;74.12;52370.22;2090695;28;32489;-75
2023/03/17 00:35:39;;;;;;;3.53;2.70;;;;;;;-146.25;74.41;52374.28;2098768;28;23366;-75
2023/03/17 00:36:44;;;;;;;3.70;2.72;;;;;;;-146.25;74.13;52388.47;2106543;28;35484;-75
2023/03/17 00:37:48;;;;;;;4.47;3.13;;;;;;;-146.25;74.07;52386.44;2107150;28;24053;-73
2023/03/17 00:38:51;;;;;;;5.32;2.95;;;;;;;-146.25;74.65;52370.22;2098222;28;24164;-75
2023/03/17 00:39:53;;;;;;;5.20;3.25;;;;;;;-146.25;74.10;52351.97;2090207;28;28894;-75
2023/03/17 00:40:58;;;;;;;5.20;3.33;;;;;;;-146.25;74.81;52349.94;2098230;28;29375;-75
2023/03/17 00:42:02;;;;;;;4.55;2.90;;;;;;;-146.25;74.61;52347.91;2107345;28;27972;-73
2023/03/17 00:43:07;;;;;;;4.82;2.90;;;;;;;-146.25;73.66;52351.97;2107612;28;20041;-73
2023/03/17 00:44:10;;;;;;;5.97;3.10;;;;;;;-146.25;74.04;52368.19;2107999;28;20071;-73
2023/03/17 00:45:13;;;;;;;4.72;3.28;;;;;;;-146.25;74.13;52351.97;2106081;28;27923;-74
2023/03/17 00:46:34;;;;;;;4.38;3.20;;;;;;;-146.25;74.91;52382.38;2106471;28;25041;-73
2023/03/17 00:47:37;;;;;;;4.47;3.03;;;;;;;-146.25;75.06;52382.38;2098419;28;29529;-73
2023/03/17 00:48:40;;;;;;;6.78;3.40;;;;;;;-146.25;75.02;52327.66;2101425;28;28800;-73
2023/03/17 00:49:45;;;;;;;5.93;2.95;;;;;;;-146.25;74.88;52372.25;2098643;28;20076;-73
2023/03/17 00:50:49;;;;;;;5.35;3.08;;;;;;;-146.25;75.40;52333.72;2098255;28;33922;-75
2023/03/17 00:51:54;;;;;;;5.30;3.55;;;;;;;-146.25;75.75;52380.38;2097846;28;27312;-73
2023/03/17 00:52:56;;;;;;;5.57;3.20;;;;;;;-146.25;75.07;52354.00;2099241;28;23788;-73
2023/03/17 00:53:58;;;;;;;5.30;2.80;;;;;;;-146.25;75.77;52382.38;2107586;28;20898;-73
2023/03/17 00:55:02;;;;;;;4.20;2.70;;;;;;;-146.25;75.77;52362.13;2107569;28;20033;-73
2023/03/17 00:56:19;;;;;;;7.07;3.63;;;;;;;-146.25;75.41;52394.56;2107645;28;20044;-75
2023/03/17 00:57:21;;;;;;;5.03;3.88;;;;;;;-146.25;75.66;52374.28;2097909;28;31823;-73
2023/03/17 00:58:29;;;;;;;5.05;3.22;;;;;;;-146.25;76.47;52341.84;2089628;28;31337;-73
2023/03/17 00:59:41;;;;;;;4.28;3.20;;;;;;;-146.25;75.59;52356.03;2090339;28;27770;-73
2023/03/17 01:00:46;;;;;;;3.25;2.70;;;;;;;-146.25;76.41;52370.22;2093340;28;20164;-72
2023/03/17 01:01:48;;;;;;;4.68;3.38;;;;;;;-146.25;76.35;52362.13;2098938;28;20036;-73
2023/03/17 01:02:54;;;;;;;5.38;2.95;;;;;;;-146.25;76.56;52368.19;2098588;28;33195;-73
2023/03/17 01:03:56;;;;;;;4.45;3.30;;;;;;;-146.25;75.73;52364.13;2098581;28;32091;-73
2023/03/17 01:04:59;;;;;;;3.58;2.90;;;;;;;-146.25;76.32;52364.13;2098789;28;29150;-73
2023/03/17 01:06:11;;;;;;;5.38;3.47;;;;;;;-146.25;75.63;52372.25;2098092;28;20040;-73
2023/03/17 01:07:14;;;;;;;5.68;3.15;;;;;;;-146.25;75.41;52351.97;2096876;28;20818;-73
2023/03/17 01:08:16;;;;;;;4.60;3.30;;;;;;;-146.25;76.20;52347.91;2082476;28;22659;-73
2023/03/17 01:09:22;;;;;;;5.40;3.50;;;;;;;-146.25;75.74;52331.69;2088637;28;26936;-73
2023/03/17 01:10:27;;;;;;;5.45;3.10;;;;;;;-146.25;76.39;52351.97;2097615;28;20049;-73
2023/03/17 01:11:30;;;;;;;4.85;2.97;;;;;;;-146.25;75.22;52380.38;2097750;28;20033;-72
2023/03/17 01:12:31;;;;;;;5.57;3.00;;;;;;;-146.25;75.97;52358.06;2097883;28;22246;-73
2023/03/17 01:13:33;;;;;;;4.20;3.10;;;;;;;-146.25;76.00;52364.13;2097820;28;20036;-73
2023/03/17 01:14:36;;;;;;;6.45;3.45;;;;;;;-146.25;75.93;52368.19;2096911;28;35632;-73
2023/03/17 01:15:42;;;;;;;4.38;3.13;;;;;;;-146.25;75.63;52327.66;2088752;28;20053;-73
2023/03/17 01:16:46;;;;;;;5.97;3.17;;;;;;;-146.25;75.53;52366.16;2080789;28;23197;-73
2023/03/17 01:17:50;;;;;;;4.15;2.92;;;;;;;-146.25;75.04;52372.25;2089572;28;20052;-73
2023/03/17 01:18:52;;;;;;;5.25;3.08;;;;;;;-146.25;75.01;52368.19;2096189;28;37462;-73
2023/03/17 01:19:54;;;;;;;4.05;3.10;;;;;;;-146.25;75.99;52364.13;2097554;28;26388;-73
2023/03/17 01:20:55;;;;;;;4.55;2.90;;;;;;;-146.25;75.64;52368.19;2097002;28;32291;-73
2023/03/17 01:21:57;;;;;;;3.72;3.00;;;;;;;-146.25;76.77;52372.25;2098099;28;20052;-73
2023/03/17 01:23:01;;;;;;;5.03;3.13;;;;;;;-146.25;77.00;52376.31;2097334;28;31533;-73
2023/03/17 01:24:04;;;;;;;4.43;2.83;;;;;;;-146.25;76.47;52327.66;2096744;28;22746;-75
2023/03/17 01:25:07;;;;;;;4.80;3.10;;;;;;;-146.25;76.05;52364.13;2097226;28;20037;-73
2023/03/17 01:26:09;;;;;;;3.83;2.65;;;;;;;-146.25;76.39;52372.25;2097941;28;20049;-74
2023/03/17 01:27:11;;;;;;;4.53;3.10;;;;;;;-146.25;76.14;52372.25;2097023;28;20041;-73
2023/03/17 01:28:19;;;;;;;3.90;3.00;;;;;;;-146.25;75.99;52360.09;2097294;28;20041;-73
2023/03/17 01:29:21;;;;;;;7.68;3.38;;;;;;;-146.25;77.04;52384.41;2098185;28;30403;-73
2023/03/17 01:30:30;;;;;;;5.20;2.92;;;;;;;-146.25;76.69;52360.09;2105320;28;26878;-73
2023/03/17 01:31:33;;;;;;;5.55;2.90;;;;;;;-146.25;76.79;52376.31;2105141;28;30651;-73
2023/03/17 01:32:35;;;;;;;5.18;2.88;;;;;;;-146.25;75.95;52378.34;2105505;28;30390;-73
2023/03/17 01:33:37;;;;;;;3.65;3.03;;;;;;;-146.25;77.07;52380.38;2096789;28;20473;-72
2023/03/17 01:34:39;;;;;;;5.05;3.08;;;;;;;-146.25;77.25;52372.25;2097076;28;23148;-73
2023/03/17 01:35:44;;;;;;;3.70;2.90;;;;;;;-146.25;76.35;52372.25;2105902;28;20045;-73
2023/03/17 01:36:47;;;;;;;4.97;3.17;;;;;;;-146.25;77.33;52360.09;2096942;28;20621;-73
2023/03/17 01:37:49;;;;;;;5.22;2.75;;;;;;;-146.25;76.82;52408.75;2088274;28;33860;-72
2023/03/17 01:38:53;;;;;;;5.25;2.92;;;;;;;-146.25;76.89;52360.09;2096629;28;28527;-73
2023/03/17 01:39:58;;;;;;;3.90;3.10;;;;;;;-146.25;76.92;52351.97;2105977;28;20075;-73
2023/03/17 01:41:00;;;;;;;5.00;3.08;;;;;;;-146.25;77.17;52386.44;2105631;28;23850;-73
2023/03/17 01:42:03;;;;;;;4.60;3.10;;;;;;;-146.25;76.79;52356.03;2096806;28;20110;-73
2023/03/17 01:43:07;;;;;;;4.82;3.53;;;;;;;-146.25;77.30;52349.94;2096921;28;25341;-73
2023/03/17 01:44:17;;;;;;;4.10;2.90;;;;;;;-146.25;76.81;52398.59;2105829;28;20040;-73
2023/03/17 01:46:08;;;;;;;4.28;3.45;;;;;;;-146.25;76.70;52356.03;2106366;28;21429;-73
2023/03/17 01:47:10;;;;;;;7.15;2.88;;;;;;;-146.25;76.37;52384.41;2105776;28;27920;-73
2023/03/17 01:48:12;;;;;;;3.90;3.00;;;;;;;-146.25;76.76;52347.91;2105553;28;32287;-73
2023/03/17 01:49:32;;;;;;;5.28;2.88;;;;;;;-146.25;76.84;52372.25;2096065;28;35934;-73
2023/03/17 01:50:34;;;;;;;5.28;3.45;;;;;;;-146.25;75.98;52364.13;2099591;28;27853;-73
2023/03/17 01:52:03;;;;;;;3.95;3.15;;;;;;;-146.25;76.44;52384.41;2105519;28;29381;-73
2023/03/17 01:53:04;;;;;;;3.80;2.55;;;;;;;-146.25;76.70;52388.47;2105738;28;29769;-73
2023/03/17 01:54:14;;;;;;;5.63;3.08;;;;;;;-146.25;76.68;52382.38;2105278;28;33770;-73
2023/03/17 01:55:16;;;;;;;7.20;3.20;;;;;;;-146.25;76.87;52364.13;2096852;28;21169;-73
2023/03/17 01:56:19;;;;;;;5.60;3.03;;;;;;;-146.25;76.58;52329.66;2098174;28;22275;-72
2023/03/17 01:57:30;;;;;;;4.25;3.17;;;;;;;-146.25;76.71;52390.50;2096720;28;21035;-73
2023/03/17 01:58:33;;;;;;;4.13;2.88;;;;;;;-146.25;77.17;52388.47;2089448;28;20156;-73
2023/03/17 01:59:42;;;;;;;4.28;3.20;;;;;;;-146.25;77.12;52345.91;2096685;28;23305;-74
2023/03/17 02:00:45;;;;;;;4.57;2.80;;;;;;;-146.25;77.36;52354.00;2096748;28;28651;-74
2023/03/17 02:01:51;;;;;;;6.25;3.20;;;;;;;-146.25;76.89;52380.38;2096477;28;20267;-74
2023/03/17 02:02:55;;;;;;;5.13;2.78;;;;;;;-146.25;76.51;52335.75;2096202;28;31570;-73
2023/03/17 02:03:58;;;;;;;5.68;3.20;;;;;;;-146.25;76.54;52347.91;2087391;28;20932;-74
2023/03/17 02:05:02;;;;;;;5.53;2.95;;;;;;;-146.25;76.54;52378.34;2080672;28;29827;-75
2023/03/17 02:06:06;;;;;;;4.05;2.63;;;;;;;-146.25;76.18;52356.03;2088410;28;20037;-73
2023/03/17 02:07:08;;;;;;;3.35;2.90;;;;;;;-146.25;76.62;52351.97;2088545;28;28066;-75
2023/03/17 02:08:15;;;;;;;4.68;3.50;;;;;;;-146.25;76.75;52384.41;2096800;28;20476;-75
2023/03/17 02:09:17;;;;;;;3.70;2.92;;;;;;;-146.25;76.52;52382.38;2096724;28;22998;-75
2023/03/17 02:10:26;;;;;;;3.72;3.00;;;;;;;-146.25;76.94;52376.31;2096968;28;20207;-75
2023/03/17 02:11:29;;;;;;;6.72;3.50;;;;;;;-146.25;76.69;52356.03;2087777;28;31904;-75
2023/03/17 02:12:34;;;;;;;4.35;3.30;;;;;;;-146.25;76.60;52392.53;2079966;28;20631;-74
2023/03/17 02:13:37;;;;;;;5.95;3.20;;;;;;;-146.25;77.36;52368.19;2072739;28;20038;-75
2023/03/17 02:14:42;;;;;;;5.40;2.97;;;;;;;-146.25;76.29;52366.16;2082117;28;20088;-75
2023/03/17 02:15:49;;;;;;;5.95;2.90;;;;;;;-146.25;76.89;52356.03;2096693;28;20048;-72
2023/03/17 02:16:52;;;;;;;3.70;3.03;;;;;;;-146.25;76.90;52396.59;2096078;28;20167;-75
2023/03/17 02:17:54;;;;;;;4.20;3.05;;;;;;;-146.25;76.38;52368.19;2097658;28;20065;-75
2023/03/17 02:18:56;;;;;;;5.13;3.30;;;;;;;-146.25;76.77;52378.34;2096627;28;32933;-75
2023/03/17 02:20:17;;;;;;;4.25;2.80;;;;;;;-146.25;76.03;52347.91;2096889;28;30126;-75
2023/03/17 02:21:33;;;;;;;3.42;2.78;;;;;;;-146.25;76.30;52370.22;2096102;28;20963;-75
2023/03/17 02:22:34;;;;;;;5.43;2.83;;;;;;;-146.25;76.10;52376.31;2096835;28;24696;-72
2023/03/17 02:23:36;;;;;;;4.38;2.63;;;;;;;-146.25;75.82;52360.09;2096390;28;27973;-75
2023/03/17 02:24:51;;;;;;;4.80;3.00;;;;;;;-146.25;76.38;52351.97;2097772;28;21020;-74
2023/03/17 02:25:53;;;;;;;5.75;3.17;;;;;;;-146.25;75.71;52384.41;2097153;28;31854;-75
2023/03/17 02:26:59;;;;;;;3.38;2.85;;;;;;;-146.25;75.69;52364.13;2087534;28;34490;-75
2023/03/17 02:28:09;;;;;;;5.00;3.00;;;;;;;-146.25;76.20;52400.63;2080830;28;23567;-75
2023/03/17 02:29:11;;;;;;;3.58;2.80;;;;;;;-146.25;76.92;52366.16;2081537;28;26835;-73
2023/03/17 02:30:19;;;;;;;5.25;2.80;;;;;;;-146.25;76.60;52404.69;2097805;28;20045;-75
2023/03/17 02:31:25;;;;;;;5.15;3.08;;;;;;;-146.25;76.43;52400.63;2095066;28;35876;-75
2023/03/17 02:32:27;;;;;;;4.95;2.83;;;;;;;-146.25;76.00;52384.41;2089691;28;27695;-75
2023/03/17 02:33:29;;;;;;;5.38;3.00;;;;;;;-146.25;75.96;52390.50;2096727;28;32912;-75
2023/03/17 02:34:32;;;;;;;6.13;2.90;;;;;;;-146.25;76.55;52368.19;2097016;28;28058;-75
2023/03/17 02:35:34;;;;;;;5.15;3.13;;;;;;;-146.25;76.86;52354.00;2096892;28;29706;-73
2023/03/17 02:36:38;;;;;;;5.20;2.70;;;;;;;-146.25;76.69;52358.06;2096563;28;35765;-73
2023/03/17 02:37:45;;;;;;;4.15;2.85;;;;;;;-146.25;76.54;52364.13;2097149;28;20045;-73
2023/03/17 02:38:47;;;;;;;4.15;3.03;;;;;;;-146.25;77.06;52384.41;2096712;28;24378;-73
2023/03/17 02:39:49;;;;;;;4.63;2.72;;;;;;;-146.25;77.36;52351.97;2095982;28;28615;-73
2023/03/17 02:40:51;;;;;;;5.45;2.85;;;;;;;-146.25;77.32;52386.44;2096843;28;20932;-72
2023/03/17 02:41:54;;;;;;;3.80;2.92;;;;;;;-146.25;77.46;52394.56;2097332;28;20437;-73
2023/03/17 02:42:56;;;;;;;3.88;2.85;;;;;;;-146.25;77.06;52396.59;2097172;28;20021;-73
2023/03/17 02:44:01;;;;;;;4.68;2.90;;;;;;;-146.25;77.57;52356.03;2096298;28;20103;-73
2023/03/17 02:45:08;;;;;;;4.32;3.22;;;;;;;-146.25;77.68;52396.59;2095971;28;30792;-73
2023/03/17 02:46:10;;;;;;;5.32;2.67;;;;;;;-146.25;77.54;52358.06;2088390;28;34590;-73
2023/03/17 02:47:12;;;;;;;6.90;3.30;;;;;;;-146.25;78.19;52376.31;2096413;28;30438;-73
2023/03/17 02:48:16;;;;;;;4.80;3.10;;;;;;;-146.25;78.32;52386.44;2096444;28;34646;-73
2023/03/17 02:49:18;;;;;;;3.95;2.83;;;;;;;-146.25;78.42;52362.13;2104284;28;35552;-73
2023/03/17 02:50:26;;;;;;;5.45;2.65;;;;;;;-146.25;78.52;52364.13;2095384;28;35894;-73
2023/03/17 02:51:28;;;;;;;4.75;2.88;;;;;;;-146.25;78.22;52400.63;2087713;28;34017;-73
2023/03/17 02:52:30;;;;;;;5.75;2.88;;;;;;;-146.25;77.76;52356.03;2088598;28;31704;-73
2023/03/17 02:53:32;;;;;;;3.78;3.00;;;;;;;-146.25;78.10;52349.94;2096239;28;37890;-73
2023/03/17 02:54:34;;;;;;;3.85;2.88;;;;;;;-146.25;77.82;52370.22;2096548;28;35955;-73
2023/03/17 02:55:36;;;;;;;5.55;3.03;;;;;;;-146.25;77.81;52368.19;2096861;28;20066;-73
2023/03/17 02:56:38;;;;;;;3.00;2.30;;;;;;;-146.25;78.03;52388.47;2095774;28;35773;-73
2023/03/17 02:57:40;;;;;;;3.50;2.58;;;;;;;-146.25;78.13;52384.41;2096738;28;32615;-73
2023/03/17 02:58:42;;;;;;;5.88;3.22;;;;;;;-146.25;78.14;52376.31;2097219;28;20922;-73
2023/03/17 02:59:47;;;;;;;4.35;3.00;;;;;;;-146.25;77.87;52374.28;2100648;28;36979;-73
2023/03/17 03:00:49;;;;;;;5.32;3.22;;;;;;;-146.25;77.69;52400.63;2103540;28;34167;-73
2023/03/17 03:01:50;;;;;;;2.78;2.50;;;;;;;-146.25;77.69;52360.09;2104547;28;32648;-73
2023/03/17 03:02:53;;;;;;;5.88;2.70;;;;;;;-146.25;77.78;52347.91;2096328;28;20160;-73
2023/03/17 03:03:57;;;;;;;5.05;2.90;;;;;;;-146.25;77.35;52356.03;2096429;28;32236;-73
2023/03/17 03:04:58;;;;;;;5.18;2.95;;;;;;;-146.25;76.41;52356.03;2104912;28;20882;-73
2023/03/17 03:06:00;;;;;;;3.63;2.90;;;;;;;-146.25;77.53;52358.06;2104946;28;38872;-73
2023/03/17 03:07:04;;;;;;;3.75;2.85;;;;;;;-146.25;77.44;52331.69;2104785;28;32702;-73
2023/03/17 03:08:06;;;;;;;4.78;3.05;;;;;;;-146.25;77.16;52392.53;2104722;28;34615;-73
2023/03/17 03:09:09;;;;;;;4.43;2.70;;;;;;;-146.25;76.97;52380.38;2105503;28;20872;-74
2023/03/17 03:10:12;;;;;;;4.55;2.65;;;;;;;-146.25;77.70;52351.97;2104700;28;37672;-73
2023/03/17 03:11:13;;;;;;;4.47;2.90;;;;;;;-146.25;77.54;52374.28;2104742;28;33040;-73
2023/03/17 03:12:15;;;;;;;5.55;2.70;;;;;;;-146.25;77.54;52372.25;2104945;28;35499;-73
2023/03/17 03:13:17;;;;;;;3.40;2.63;;;;;;;-146.25;77.28;52396.59;2105749;28;21059;-73
2023/03/17 03:14:19;;;;;;;5.25;2.95;;;;;;;-146.25;77.42;52341.84;2095781;28;34182;-73
2023/03/17 03:15:21;;;;;;;4.28;2.83;;;;;;;-146.25;77.40;52364.13;2095827;28;38626;-73
2023/03/17 03:16:23;;;;;;;5.88;2.47;;;;;;;-146.25;77.08;52360.09;2103850;28;35048;-73
2023/03/17 03:17:25;;;;;;;3.33;2.58;;;;;;;-146.25;77.64;52366.16;2105256;28;36458;-73
2023/03/17 03:18:27;;;;;;;7.05;3.05;;;;;;;-146.25;77.75;52392.53;2105456;28;20071;-73
2023/03/17 03:19:28;;;;;;;7.38;3.10;;;;;;;-146.25;77.54;52329.66;2104362;28;34735;-73
2023/03/17 03:20:30;;;;;;;4.95;2.63;;;;;;;-146.25;77.88;52378.34;2104923;28;34062;-73
2023/03/17 03:21:32;;;;;;;3.53;3.05;;;;;;;-146.25;77.62;52378.34;2105413;28;20040;-73
2023/03/17 03:22:34;;;;;;;4.88;2.75;;;;;;;-146.25;77.19;52404.69;2104858;28;36048;-73
2023/03/17 03:23:36;;;;;;;6.07;2.60;;;;;;;-146.25;77.37;52360.09;2104491;28;33055;-73
2023/03/17 03:24:41;;;;;;;4.43;2.60;;;;;;;-146.25;77.26;52358.06;2105351;28;20866;-74
2023/03/17 03:25:43;;;;;;;2.92;2.42;;;;;;;-146.25;77.55;52376.31;2104224;28;37848;-73
2023/03/17 03:26:47;;;;;;;4.00;2.97;;;;;;;-146.25;78.11;52360.09;2105072;28;20040;-73
2023/03/17 03:27:48;;;;;;;6.18;2.83;;;;;;;-146.25;77.28;52354.00;2105035;28;20033;-73
2023/03/17 03:28:50;;;;;;;5.22;3.05;;;;;;;-146.25;77.70;52376.31;2104755;28;35698;-74
2023/03/17 03:29:52;;;;;;;4.68;3.35;;;;;;;-146.25;77.57;52351.97;2095373;28;34296;-75
2023/03/17 03:30:54;;;;;;;4.15;2.88;;;;;;;-146.25;78.17;52398.59;2096098;28;31764;-73
2023/03/17 03:31:56;;;;;;;4.45;2.97;;;;;;;-146.25;78.03;52372.25;2104039;28;38153;-74
2023/03/17 03:33:01;;;;;;;5.05;3.20;;;;;;;-146.25;78.32;52349.94;2095420;28;20806;-73
2023/03/17 03:34:03;;;;;;;5.50;2.95;;;;;;;-146.25;77.90;52378.34;2095964;28;37162;-73
2023/03/17 03:35:07;;;;;;;4.30;2.78;;;;;;;-146.25;78.04;52368.19;2104928;28;33017;-73
2023/03/17 03:36:10;;;;;;;4.00;2.60;;;;;;;-146.25;78.36;52412.81;2104938;28;20044;-73
2023/03/17 03:37:12;;;;;;;5.07;3.00;;;;;;;-146.25;78.25;52396.59;2104618;28;37536;-73
2023/03/17 03:38:14;;;;;;;4.25;2.55;;;;;;;-146.25;77.85;52356.03;2104473;28;34156;-73
2023/03/17 03:39:16;;;;;;;3.85;2.85;;;;;;;-146.25;78.17;52368.19;2105205;28;36255;-73
2023/03/17 03:40:17;;;;;;;2.88;2.53;;;;;;;-146.25;78.24;52327.66;2104319;28;37977;-73
2023/03/17 03:41:19;;;;;;;5.32;3.03;;;;;;;-146.25;78.21;52366.16;2104827;28;32660;-73
2023/03/17 03:42:21;;;;;;;5.28;3.25;;;;;;;-146.25;78.45;52364.13;2104451;28;36403;-73
2023/03/17 03:43:22;;;;;;;5.20;2.72;;;;;;;-146.25;78.19;52327.66;2104576;28;36989;-73
2023/03/17 03:44:25;;;;;;;4.60;3.13;;;;;;;-146.25;78.35;52368.19;2104406;28;34892;-73
2023/03/17 03:45:26;;;;;;;3.92;3.05;;;;;;;-146.25;78.49;52388.47;2104862;28;33411;-73
2023/03/17 03:46:28;;;;;;;3.78;2.60;;;;;;;-146.25;79.10;52386.44;2104424;28;20098;-73
2023/03/17 03:47:30;;;;;;;3.28;2.70;;;;;;;-146.25;78.68;52380.38;2104273;28;23632;-73
2023/03/17 03:48:32;;;;;;;4.22;2.92;;;;;;;-146.25;78.30;52376.31;2104235;28;38143;-73
2023/03/17 03:49:34;;;;;;;3.50;2.78;;;;;;;-146.25;78.71;52364.13;2104006;28;31932;-73
2023/03/17 03:50:36;;;;;;;3.33;2.65;;;;;;;-146.25;78.40;52356.03;2104223;28;41276;-73
2023/03/17 03:51:37;;;;;;;4.72;2.90;;;;;;;-146.25;78.74;52380.38;2105110;28;20045;-73
2023/03/17 03:52:39;;;;;;;4.63;2.78;;;;;;;-146.25;78.68;52388.47;2104151;28;37613;-74
2023/03/17 03:53:44;;;;;;;3.85;3.00;;;;;;;-146.25;79.05;52333.72;2104826;28;21005;-73
2023/03/17 03:54:45;;;;;;;5.00;2.85;;;;;;;-146.25;78.91;52358.06;2104677;28;33937;-73
2023/03/17 03:55:47;;;;;;;4.78;3.10;;;;;;;-146.25;78.48;52343.88;2104401;28;38265;-73
2023/03/17 03:56:49;;;;;;;5.15;2.75;;;;;;;-146.25;78.79;52345.91;2105074;28;20033;-73
2023/03/17 03:57:53;;;;;;;4.90;3.03;;;;;;;-146.25;78.62;52402.66;2104601;28;34143;-73
2023/03/17 03:58:56;;;;;;;4.63;2.90;;;;;;;-146.25;78.92;52390.50;2095522;28;32817;-73
2023/03/17 03:59:57;;;;;;;3.90;2.63;;;;;;;-146.25;78.94;52370.22;2095685;28;36354;-73
2023/03/17 04:01:05;;;;;;;4.35;3.30;;;;;;;-146.25;78.95;52372.25;2104185;28;37602;-73
2023/03/17 04:02:06;;;;;;;3.42;2.65;;;;;;;-146.25;78.92;52366.16;2104813;28;36220;-73
2023/03/17 04:03:10;;;;;;;4.18;3.10;;;;;;;-146.25;78.74;52360.09;2104387;28;35817;-73
2023/03/17 04:04:12;;;;;;;4.03;2.95;;;;;;;-146.25;79.55;52360.09;2104659;28;35484;-73
2023/03/17 04:05:17;;;;;;;6.25;2.80;;;;;;;-146.25;79.00;52396.59;2104249;28;33680;-73
2023/03/17 04:06:21;;;;;;;3.97;3.17;;;;;;;-146.25;78.73;52358.06;2095121;28;34113;-73
2023/03/17 04:07:23;;;;;;;3.90;2.90;;;;;;;-146.25;78.65;52368.19;2096373;28;35068;-73
2023/03/17 04:08:26;;;;;;;3.15;2.85;;;;;;;-146.25;79.31;52400.63;2104760;28;34575;-73
2023/03/17 04:09:27;;;;;;;7.00;3.30;;;;;;;-146.25;79.69;52374.28;2104509;28;31751;-73
2023/03/17 04:10:30;;;;;;;4.78;2.80;;;;;;;-146.25;79.17;52358.06;2104457;28;37986;-73
2023/03/17 04:11:32;;;;;;;4.13;3.00;;;;;;;-146.25;78.89;52358.06;2104678;28;20048;-73
2023/03/17 04:12:34;;;;;;;5.30;2.92;;;;;;;-146.25;79.65;52368.19;2104115;28;36072;-73
2023/03/17 04:13:40;;;;;;;4.60;2.80;;;;;;;-146.25;79.29;52335.75;2104920;28;20029;-73
2023/03/17 04:14:43;;;;;;;4.18;2.80;;;;;;;-146.25;79.23;52372.25;2105112;28;21020;-73
2023/03/17 04:15:45;;;;;;;4.68;3.05;;;;;;;-146.25;78.88;52382.38;2104499;28;36548;-73
2023/03/17 04:16:46;;;;;;;4.70;2.88;;;;;;;-146.25;79.08;52343.88;2104311;28;34201;-73
2023/03/17 04:17:48;;;;;;;5.15;2.80;;;;;;;-146.25;78.73;52356.03;2105149;28;20105;-73
2023/03/17 04:18:50;;;;;;;4.45;3.08;;;;;;;-146.25;79.05;52366.16;2104543;28;37333;-73
2023/03/17 04:19:52;;;;;;;4.32;2.67;;;;;;;-146.25;78.78;52339.81;2104605;28;35766;-73
2023/03/17 04:20:54;;;;;;;3.45;2.83;;;;;;;-146.25;78.63;52376.31;2104426;28;33989;-73
2023/03/17 04:21:58;;;;;;;6.68;3.10;;;;;;;-146.25;78.82;52406.72;2104072;28;38541;-73
2023/03/17 04:23:02;;;;;;;4.95;2.90;;;;;;;-146.25;78.79;52315.47;2104919;28;20055;-73
2023/03/17 04:24:04;;;;;;;3.42;2.85;;;;;;;-146.25;78.50;52410.78;2104490;28;34691;-73
2023/03/17 04:25:07;;;;;;;4.50;3.10;;;;;;;-146.25;78.88;52323.59;2105101;28;20852;-73
2023/03/17 04:26:10;;;;;;;4.43;2.67;;;;;;;-146.25;79.00;52339.81;2104187;28;37467;-73
2023/03/17 04:27:16;;;;;;;7.00;3.03;;;;;;;-146.25;78.33;52368.19;2095357;28;31367;-73
2023/03/17 04:28:19;;;;;;;5.47;3.00;;;;;;;-146.25;78.21;52364.13;2095967;28;35626;-73
2023/03/17 04:29:23;;;;;;;6.40;3.42;;;;;;;-146.25;78.35;52347.91;2095330;28;33880;-73
2023/03/17 04:30:25;;;;;;;3.60;2.70;;;;;;;-146.25;77.95;52366.16;2096194;28;33418;-73
2023/03/17 04:31:26;;;;;;;4.97;3.10;;;;;;;-146.25;78.65;52364.13;2103808;28;36976;-73
2023/03/17 04:32:28;;;;;;;5.22;3.00;;;;;;;-146.25;78.87;52360.09;2103676;28;32802;-73
2023/03/17 04:33:32;;;;;;;4.47;2.92;;;;;;;-146.25;78.60;52370.22;2104521;28;34638;-73
2023/03/17 04:34:36;;;;;;;4.65;3.20;;;;;;;-146.25;78.60;52378.34;2104193;28;33560;-73
2023/03/17 04:35:38;;;;;;;4.18;2.83;;;;;;;-146.25;78.78;52351.97;2104700;28;20909;-73
2023/03/17 04:36:41;;;;;;;6.95;3.20;;;;;;;-146.25;78.35;52384.41;2104506;28;33970;-73
2023/03/17 04:37:43;;;;;;;4.57;2.80;;;;;;;-146.25;78.19;52380.38;2104136;28;34710;-73
2023/03/17 04:38:45;;;;;;;5.07;3.03;;;;;;;-146.25;78.22;52347.91;2104349;28;35772;-73
2023/03/17 04:39:47;;;;;;;5.78;3.08;;;;;;;-146.25;78.13;52364.13;2104395;28;35254;-72
2023/03/17 04:40:49;;;;;;;5.55;2.83;;;;;;;-146.25;77.94;52343.88;2104511;28;34607;-72
2023/03/17 04:41:51;;;;;;;6.88;3.00;;;;;;;-146.25;78.44;52333.72;2104328;28;37465;-73
2023/03/17 04:42:53;;;;;;;4.65;3.08;;;;;;;-146.25;78.50;52339.81;2104093;28;34893;-73
2023/03/17 04:43:55;;;;;;;5.35;2.80;;;;;;;-146.25;78.85;52368.19;2104285;28;38065;-72
2023/03/17 04:44:56;;;;;;;4.45;3.28;;;;;;;-146.25;78.62;52384.41;2105867;28;33416;-74
2023/03/17 04:45:58;;;;;;;4.78;2.90;;;;;;;-146.25;77.89;52380.38;2105502;28;38689;-73
2023/03/17 04:47:00;;;;;;;4.95;2.90;;;;;;;-146.25;78.24;52345.91;2105743;28;20036;-73
2023/03/17 04:48:02;;;;;;;4.70;2.92;;;;;;;-146.25;77.75;52345.91;2105817;28;35366;-73
2023/03/17 04:49:03;;;;;;;4.57;3.10;;;;;;;-146.25;78.52;52384.41;2105803;28;32373;-73
2023/03/17 04:50:07;;;;;;;3.22;2.63;;;;;;;-146.25;78.43;52376.31;2106003;28;34715;-73
2023/03/17 04:51:09;;;;;;;5.30;2.97;;;;;;;-146.25;77.71;52351.97;2096711;28;37100;-73
2023/03/17 04:52:14;;;;;;;5.32;3.22;;;;;;;-146.25;77.79;52356.03;2088926;28;33040;-73
2023/03/17 04:53:16;;;;;;;4.10;2.88;;;;;;;-146.25;78.01;52354.00;2088378;28;33821;-73